Accueil
METAR-TAF:

METAR-TAF

Aéroports :

Aéroport international OR Tambo

Johannesburg, Afrique du Sud

latitude: 26-08S, longitude: 028-14E, altitude: 1694 m

Observation

Le bulletin a été fait il y a 38 minutes, à 21:00 UTC
Vent 10 kt de est/nord-est
Température 11°C
Humidité 54%
Pression 1032 hPa
Visibilité 10 km ou plus
Nuages épars à une hauteur de 3000 ft

METAR: FAOR 212100Z 06010KT 9999 SCT030 11/02 Q1032 NOSIG

Heure: 23:38 (21:38 UTC)

Prévision

Le bulletin a été fait il y a 5 heures et 38 minutes, à 16:00 UTC
Prévision valable du 21 à 18 UTC au 22 à 24 UTC
Vent 10 kt de est/nord-est
Visibilité 10 km ou plus
pas de nuages en-dessous de 1500 mètres et pas de cumulonimbus.
Probabilité 30% :
Temporairement
du 21 à 22 UTC au 22 à 03 UTC
Nuages fragmentés à une hauteur de 600 ft

TAF: FAOR 211600Z 2118/2224 06010KT CAVOK PROB30 TEMPO 2122/2203 BKN006 TX20/2213Z TN07/2204Z

Observations et prévisions météorologiques de plus de 4000 aéroports (messages METAR et TAF).

Les stations disponibles sont représentées par des disques jaunes et rouges sur la carte.

Passer la souris dessus pour voir le nom de la station.

Cliquer dessus pour voir les observations et prévisions météorologiques.

Pour changer de carte: cliquez sur les boutons verts avec une croix noire pour zoomer, sur le bouton vert avec un tiret pour effectuer un zoom arrière, ou sur les flèches vertes pour les cartes adjacentes.


METAR-TAF: